aviador You're here:

KFAM Decoded Metar

FARMINGTON in MO, USA
Report Time2017-11-23 19:56:00
UTC Time2017-11-23 20:22:17
Flight Rules vfr VFR
Wind190° at 11 kt
W.Decomp.*RWY 20: 10.8 kt HW 2.3 kt LCW
W.Rank190° ranks 3
Current wind is above 190° avg. (8.5)
Visibility9999 m
Phenomena:N/A
Clouds:N/A
Expected CloudBase > 6,800 ft AGL from Temp-Dew spread
CeilingNone
Temp14°C (ISA +1)
Dew Point-3°C (31% RH)
AAT7.7°C
QNH1015 hPa
Density Alt1,053 ft
Elevation945 ft
Report Wrong Elevation
Raw Report
KFAM 231956Z AUTO 19011KT 10SM CLR 14/M03 A2998 RMK AO2 SLP155
T01391033=

Extra information for KFAM:More info

Metar Taf Metar & Taf Last 4 Metars F.Rules Stats Wind Profile Meteogram Temp Stats Airport Information Weather charts Add Link Nearby VenuesMetar ALERT Operation Metar Decoded Social comments

AIRNAV info for KFAM